Terminal Aerodrome Forecast
Issued by NWS Duluth, MN

Home | Current Version | Previous Version | Text Only | Print | Product List | Glossary On
Versions: 1 2 3 4 5 6 7 8 9 10 11 12 13 14 15 16 17 18 19 20 21 22 23
931
FTUS43 KDLH 101138
TAFINL
TAF
KINL 101138Z 1012/1112 01003KT 5SM BR SCT003
      TEMPO 1012/1015 2SM BR SCT003
     FM101500 04003KT P6SM SCT005
     FM102200 33003KT P6SM SCT015 SCT070
     FM110400 VRB02KT P6SM SCT015 BKN060=

USA.gov is the U.S. government's official web portal to all federal, state and local government web resources and services.